Latest Weather Observations for Meekatharra

IDW60801

Issued at 4:05 pm WST Thursday 2 October 2014 (issued every 30 minutes, with the page automatically refreshed every 10 minutes)

About weather observations | Map of weather stations | Latest weather observations for WA | Other Formats
Station Details ID: 007045 Name: MEEKATHARRA AIRPORT Lat: -26.61 Lon: 118.54 Height: 517.0 m
Data from the previous 72 hours. | See also: Recent months at Meekatharra
Date/Time
WST
Temp
°C
App
Temp
°C
Dew
Point
Rel
Hum
%
Delta-T
°C
Wind Press
QNH
hPa
Press
MSL
hPa
Rain
since 9 am
mm
Dir
 
Spd
km/h
Gust
km/h
Spd
kts
Gust
kts
02/04:00pm 32.6 26.3 -3.7 9 17.0 WNW 20 32 11 17 1013.4 - 0.0
02/03:30pm 32.5 27.5 -1.4 11 16.5 W 15 24 8 13 1013.4 - 0.0
02/03:00pm 33.3 28.4 -0.6 11 16.8 W 15 22 8 12 1013.3 1010.9 0.0
02/02:30pm 33.3 26.7 -3.6 9 17.4 WNW 22 35 12 19 1013.4 - 0.0
02/02:00pm 33.3 26.8 -2.5 10 17.2 WNW 22 32 12 17 1013.6 - 0.0
02/01:30pm 33.6 27.3 -1.2 11 17.1 NW 22 32 12 17 1013.8 - 0.0
02/01:00pm 33.3 27.4 -2.1 10 17.1 NW 19 32 10 17 1014.1 - 0.0
02/12:30pm 33.4 27.6 -1.3 11 17.0 NNW 19 28 10 15 1014.5 - 0.0
02/12:00pm 32.8 28.4 0.2 12 16.3 NW 13 20 7 11 1014.9 1012.5 0.0
02/11:30am 32.5 26.5 -3.0 10 16.8 NW 19 28 10 15 1015.2 - 0.0
02/11:00am 32.4 28.3 0.0 12 16.1 WNW 11 20 6 11 1015.3 - 0.0
02/10:30am 30.7 27.8 4.8 19 13.8 W 9 17 5 9 1015.5 - 0.0
02/10:00am 28.6 26.5 6.7 25 11.9 WSW 7 13 4 7 1015.7 - 0.0
02/09:30am 26.5 24.4 6.5 28 10.7 WSW 7 11 4 6 1016.1 - 0.0
02/09:00am 26.1 24.3 7.0 29 10.3 WSW 6 7 3 4 1016.2 1013.8 0.0
02/08:30am 24.5 22.6 7.4 33 9.2 WSW 7 9 4 5 1016.2 - 0.0
02/08:00am 23.6 21.0 7.8 36 8.5 WSW 11 13 6 7 1016.3 - 0.0
02/07:30am 22.4 19.6 6.8 36 8.2 WSW 11 15 6 8 1016.2 - 0.0
02/07:00am 22.3 18.7 5.0 32 8.8 WSW 13 17 7 9 1015.9 - 0.0
02/06:30am 22.1 18.8 4.4 31 8.9 SW 11 19 6 10 1015.7 - 0.0
02/06:00am 20.9 18.0 4.5 34 8.2 SW 9 11 5 6 1015.3 1012.9 0.0
02/05:30am 21.3 18.1 5.1 34 8.2 SW 11 13 6 7 1015.2 - 0.0
02/05:00am 21.8 18.6 5.3 34 8.4 SW 11 13 6 7 1015.0 - 0.0
02/04:30am 22.4 19.8 6.0 34 8.5 SW 9 11 5 6 1014.9 - 0.0
02/04:00am 23.3 20.0 4.6 29 9.5 SW 11 15 6 8 1015.0 - 0.0
02/03:30am 23.9 20.5 3.8 27 10.1 SW 11 17 6 9 1014.7 - 0.0
02/03:00am 23.2 20.1 7.3 36 8.5 SW 13 15 7 8 1014.5 1012.1 0.0
02/02:30am 24.7 20.5 1.7 22 11.2 SW 13 17 7 9 1014.5 - 0.0
02/02:00am 25.1 20.5 1.4 21 11.5 SW 15 20 8 11 1014.3 - 0.0
02/01:30am 25.4 20.7 0.9 20 11.8 WSW 15 20 8 11 1014.5 - 0.0
02/01:00am 25.8 21.2 1.4 20 11.9 WSW 15 20 8 11 1014.8 - 0.0
02/12:30am 26.3 21.3 1.3 19 12.2 WSW 17 24 9 13 1014.8 - 0.0
02/12:00am 26.7 21.4 -0.5 17 12.9 WSW 17 24 9 13 1014.5 1012.1 0.0
 
Date/Time
WST
Temp
°C
App
Temp
°C
Dew
Point
Rel
Hum
%
Delta-T
°C
Wind Press
QNH
hPa
Press
MSL
hPa
Rain
since 9 am
mm
Dir
 
Spd
km/h
Gust
km/h
Spd
kts
Gust
kts
01/11:30pm 27.2 21.3 -0.6 16 13.2 WSW 20 28 11 15 1014.7 - 0.0
01/11:00pm 27.7 22.3 -1.5 15 13.7 WSW 17 24 9 13 1015.0 - 0.0
01/10:30pm 27.6 23.2 -2.2 14 13.8 S 11 19 6 10 1015.3 - 0.0
01/10:00pm 27.9 23.0 -3.8 12 14.3 SW 13 17 7 9 1014.8 - 0.0
01/09:30pm 28.2 23.2 -4.0 12 14.5 WSW 13 15 7 8 1014.7 - 0.0
01/09:00pm 28.3 22.9 -4.7 11 14.7 W 15 20 8 11 1014.7 1012.3 0.0
01/08:30pm 26.4 22.5 -1.7 15 13.0 N 9 11 5 6 1014.6 - 0.0
01/08:00pm 26.7 23.8 1.4 19 12.4 N 6 11 3 6 1014.7 - 0.0
01/07:30pm 27.0 23.9 0.2 17 12.9 N 6 7 3 4 1014.6 - 0.0
01/07:00pm 29.4 26.5 2.5 18 13.7 N 7 9 4 5 1014.5 - 0.0
01/06:30pm 31.4 27.0 -2.7 11 16.1 N 11 15 6 8 1014.3 - 0.0
01/06:00pm 32.5 26.8 -4.0 9 17.0 N 17 22 9 12 1014.3 1011.8 0.0
01/05:30pm 33.1 26.7 -4.8 8 17.5 N 20 28 11 15 1014.1 - 0.0
01/05:00pm 33.6 26.4 -5.4 8 17.9 NNE 24 33 13 18 1013.8 - 0.0
01/04:30pm 33.9 28.1 -4.4 8 17.9 N 17 26 9 14 1013.8 - 0.0
01/04:00pm 34.0 27.1 -5.8 7 18.2 N 22 30 12 16 1013.9 - 0.0
01/03:30pm 34.3 27.4 -6.0 7 18.4 N 22 37 12 20 1014.1 - 0.0
01/03:00pm 33.8 26.5 -6.0 7 18.1 N 24 44 13 24 1014.5 1012.1 0.0
01/02:30pm 33.5 26.2 -5.8 7 17.9 N 24 35 13 19 1014.6 - 0.0
01/02:00pm 32.3 25.0 -5.9 8 17.2 NNE 24 33 13 18 1015.0 - 0.0
01/01:30pm 32.7 25.0 -6.3 8 17.5 N 26 39 14 21 1015.5 - 0.0
01/01:10pm 32.7 24.7 -5.7 8 17.4 NNE 28 46 15 25 1015.8 - 0.0
01/01:00pm 32.8 24.7 -6.6 7 17.6 NNE 28 41 15 22 1016.1 - 0.0
01/12:30pm 32.1 24.1 -6.1 8 17.1 NNE 28 43 15 23 1016.6 - 0.0
01/12:00pm 31.9 23.4 -6.8 8 17.1 NNE 30 41 16 22 1017.0 1014.6 0.0
01/11:30am 30.9 22.2 -5.5 9 16.3 NNE 32 44 17 24 1017.6 - 0.0
01/11:00am 31.2 24.0 -5.1 9 16.4 NE 24 39 13 21 1018.3 - 0.0
01/10:30am 30.6 23.4 -5.4 9 16.1 NNE 24 32 13 17 1018.6 - 0.0
01/10:00am 28.8 20.1 -5.0 10 15.0 NE 32 46 17 25 1019.0 - 0.6
01/09:30am 28.5 19.8 -4.8 11 14.8 NE 32 46 17 25 1019.2 - 0.0
01/09:05am 27.2 18.9 -5.0 11 14.1 NE 30 59 16 32 1019.1 - 0.0
01/09:00am 27.5 19.7 -4.1 12 14.1 NE 28 39 15 21 1019.1 1016.7 0.0
01/08:30am 25.4 16.8 -4.4 13 13.0 NE 32 54 17 29 1019.1 - 0.0
01/08:03am 24.8 15.7 -3.6 15 12.5 NE 35 54 19 29 1019.1 - 0.0
01/08:00am 24.6 15.1 -4.1 14 12.5 NE 37 54 20 29 1019.1 - 0.0
01/07:44am 24.2 16.4 -4.2 15 12.3 NE 28 57 15 31 1019.0 - 0.0
01/07:30am 23.8 16.0 -4.2 15 12.1 NE 28 43 15 23 1019.0 - 0.0
01/07:00am 22.4 15.3 -4.5 16 11.4 NE 24 33 13 18 1018.7 - 0.0
01/06:30am 21.1 14.4 -4.4 17 10.7 NE 22 30 12 16 1018.5 - 0.0
01/06:00am 19.8 13.8 -3.3 21 9.8 ENE 19 24 10 13 1018.3 1015.9 0.0
01/05:30am 20.0 14.3 -3.8 20 10.0 ENE 17 22 9 12 1018.0 - 0.0
01/05:00am 20.6 14.5 -3.7 19 10.3 ENE 19 24 10 13 1017.5 - 0.0
01/04:30am 21.5 15.2 -3.8 18 10.8 NE 20 28 11 15 1017.3 - 0.0
01/04:00am 21.9 15.6 -3.8 17 11.0 ENE 20 30 11 16 1016.9 - 0.0
01/03:30am 21.8 16.5 -3.5 18 10.9 E 15 20 8 11 1016.5 - 0.0
01/03:00am 21.9 16.3 -3.3 18 10.9 E 17 24 9 13 1016.2 1013.8 0.0
01/02:30am 22.6 16.6 -3.4 17 11.3 E 19 28 10 15 1016.1 - 0.0
01/02:00am 23.0 16.8 -2.9 17 11.4 E 20 28 11 15 1015.8 - 0.0
01/01:30am 23.4 16.9 -2.8 17 11.6 E 22 32 12 17 1015.8 - 0.0
01/01:00am 23.8 16.5 -2.8 17 11.8 E 26 35 14 19 1015.9 - 0.0
01/12:30am 24.0 17.1 -2.3 17 11.8 E 24 33 13 18 1016.3 - 0.0
01/12:00am 24.2 17.4 -1.8 18 11.8 E 24 35 13 19 1016.3 1013.9 0.0
 
Date/Time
WST
Temp
°C
App
Temp
°C
Dew
Point
Rel
Hum
%
Delta-T
°C
Wind Press
QNH
hPa
Press
MSL
hPa
Rain
since 9 am
mm
Dir
 
Spd
km/h
Gust
km/h
Spd
kts
Gust
kts
30/11:30pm 24.7 17.5 -2.4 16 12.2 E 26 35 14 19 1016.6 - 0.0
30/11:00pm 24.7 17.9 -1.9 17 12.1 E 24 32 13 17 1016.7 - 0.0
30/10:30pm 25.2 18.4 -2.0 16 12.4 E 24 37 13 20 1016.9 - 0.0
30/10:00pm 25.4 19.2 -2.9 15 12.7 ESE 20 28 11 15 1017.0 - 0.0
30/09:30pm 25.2 19.3 -2.5 16 12.5 ESE 19 22 10 12 1017.3 - 0.0
30/09:00pm 25.9 20.3 -3.0 14 13.0 ESE 17 24 9 13 1017.3 1015.7 0.0
30/08:30pm 26.5 20.9 -3.3 14 13.4 ESE 17 20 9 11 1017.3 - 0.0
30/08:00pm 26.8 21.6 -3.0 14 13.5 E 15 19 8 10 1017.3 - 0.0
30/07:30pm 27.2 22.4 -2.9 13 13.7 E 13 15 7 8 1017.1 - 0.0
30/07:00pm 27.7 23.8 -1.6 14 13.7 E 9 13 5 7 1017.0 - 0.0
30/06:30pm 29.3 24.5 -2.9 12 14.9 E 13 17 7 9 1016.7 - 0.0
30/06:00pm 30.1 25.2 -3.1 11 15.4 ENE 13 20 7 11 1016.4 1014.7 0.0
30/05:30pm 30.8 26.4 -2.5 11 15.7 E 11 19 6 10 1016.2 - 0.0
30/05:00pm 31.0 24.3 -4.0 10 16.1 ENE 22 32 12 17 1016.2 - 0.0
30/04:30pm 31.2 25.7 -2.4 11 15.9 NNE 17 22 9 12 1016.2 - 0.0
30/04:00pm 31.6 27.0 -0.8 12 15.8 NNE 13 24 7 13 1016.2 - 0.0
30/03:30pm 31.1 26.7 -2.2 11 15.8 NE 11 24 6 13 1016.3 - 0.0
30/03:00pm 31.7 27.1 -1.0 12 15.9 N 13 24 7 13 1016.3 1014.6 0.0
30/02:30pm 31.9 27.2 -1.8 11 16.2 N 13 20 7 11 1016.4 - 0.0
30/02:00pm 30.6 25.3 -0.8 13 15.2 E 17 30 9 16 1016.7 - 0.0
30/01:30pm 30.2 24.5 -0.9 13 15.0 E 19 30 10 16 1017.1 - 0.0
30/01:00pm 29.6 23.8 -1.2 13 14.7 E 19 39 10 21 1017.6 - 0.0
30/12:30pm 30.3 25.2 -2.1 12 15.3 E 15 28 8 15 1018.0 - 0.0
30/12:00pm 28.8 24.1 -1.9 13 14.4 E 13 30 7 16 1018.5 1016.9 0.0
30/11:30am 28.1 23.1 -1.0 15 13.8 E 15 22 8 12 1019.0 - 0.0
30/11:00am 27.5 21.1 -1.7 14 13.6 ENE 22 32 12 17 1019.3 - 0.0
30/10:30am 27.1 20.9 -0.1 17 13.0 E 22 32 12 17 1019.5 - 0.0
30/10:00am 26.2 20.2 1.0 19 12.2 E 22 32 12 17 1019.8 - 0.0
30/09:30am 24.4 17.3 1.3 22 11.1 E 28 37 15 20 1020.2 - 0.0
30/09:00am 23.4 15.9 1.5 23 10.5 E 30 44 16 24 1020.0 1018.4 0.0
30/08:30am 21.9 15.3 2.1 27 9.5 E 26 39 14 21 1020.5 - 0.0
30/08:00am 20.8 13.5 2.7 30 8.7 E 30 39 16 21 1020.4 - 0.0
30/07:30am 19.4 15.7 15.9 80 2.1 ESE 30 44 16 24 1020.2 - 0.0
30/07:00am 17.6 14.4 11.9 69 3.2 ESE 20 32 11 17 1020.2 - 0.0
30/06:30am 16.4 13.3 8.8 60 4.0 SE 15 20 8 11 1020.0 - 0.0
30/06:00am 14.8 12.3 8.0 64 3.5 SE 11 13 6 7 1019.9 1018.3 0.0
30/05:30am 14.9 11.9 7.9 63 3.6 SE 13 17 7 9 1019.4 - 0.0
30/05:00am 15.3 12.0 7.9 61 3.8 SE 15 20 8 11 1019.1 - 0.0
30/04:30am 15.6 12.2 7.8 59 4.0 SE 15 20 8 11 1018.9 - 0.0
30/04:00am 15.3 12.6 7.2 58 4.1 SSE 11 15 6 8 1018.6 - 0.0
30/03:30am 15.5 13.2 7.5 59 4.1 SSE 9 13 5 7 1018.4 - 0.0
30/03:00am 16.1 12.3 7.5 56 4.4 S 17 24 9 13 1017.7 1016.1 0.0
30/02:30am 16.4 13.3 7.4 55 4.6 SSE 13 17 7 9 1017.7 - 0.0
30/02:00am 17.2 14.2 7.7 53 4.9 SSE 13 19 7 10 1017.9 - 0.0
30/01:30am 17.4 14.3 7.3 51 5.2 SSE 13 17 7 9 1017.8 - 0.0
30/01:00am 18.2 14.4 7.4 49 5.6 SSE 17 22 9 12 1017.9 - 0.0
30/12:30am 17.9 14.9 7.5 50 5.4 SSE 13 15 7 8 1017.8 - 0.0
30/12:00am 18.8 14.9 7.2 47 6.0 S 17 22 9 12 1017.8 1016.2 0.0
 
Date/Time
WST
Temp
°C
App
Temp
°C
Dew
Point
Rel
Hum
%
Delta-T
°C
Wind Press
QNH
hPa
Press
MSL
hPa
Rain
since 9 am
mm
Dir
 
Spd
km/h
Gust
km/h
Spd
kts
Gust
kts
29/11:30pm 19.0 15.1 7.0 45 6.2 S 17 24 9 13 1017.8 - 0.0
29/11:00pm 19.2 15.3 7.3 46 6.2 S 17 19 9 10 1018.0 - 0.0
29/10:30pm 19.9 15.9 6.7 42 6.8 S 17 22 9 12 1018.2 - 0.0
29/10:00pm 20.1 16.2 7.3 43 6.7 S 17 22 9 12 1018.4 - 0.0
29/09:30pm 20.9 17.3 6.9 40 7.3 S 15 19 8 10 1018.4 - 0.0
29/09:00pm 21.1 17.4 4.5 33 8.3 S 13 17 7 9 1018.5 1016.9 0.0
29/08:30pm 21.5 17.8 4.2 32 8.6 SSW 13 17 7 9 1018.4 - 0.0
29/08:00pm 22.5 18.7 4.1 30 9.2 SSW 13 17 7 9 1018.0 - 0.0
29/07:30pm 23.3 19.0 1.3 23 10.5 SW 13 19 7 10 1017.7 - 0.0
29/07:00pm 24.6 21.4 2.8 24 10.8 SW 9 13 5 7 1017.3 - 0.0
29/06:30pm 25.3 22.1 3.1 23 11.1 SSW 9 11 5 6 1017.0 - 0.0
29/06:00pm 26.1 21.4 1.2 19 12.1 SSW 15 20 8 11 1016.7 1015.0 0.0
29/05:30pm 26.7 23.1 2.8 21 12.0 SSW 11 20 6 11 1016.3 - 0.0
29/05:00pm 27.4 22.4 1.4 18 12.8 WSW 17 24 9 13 1016.1 - 0.0
29/04:30pm 27.9 23.2 0.6 17 13.3 WSW 15 20 8 11 1015.7 - 0.0

Other Formats:

Comma delimited format used in spreadsheet applications
http://www.bom.gov.au/fwo/IDW60801/IDW60801.94430.axf

JavaScript Object Notation format (JSON) in row-major order
http://www.bom.gov.au/fwo/IDW60801/IDW60801.94430.json